Time;durP1;ratioP1;P1;durP2;ratioP2;P2;SDS_P1;SDS_P2;PMS_P1;PMS_P2;Temp;Humidity;BMP_temperature;BMP_pressure;BME280_temperature;BME280_humidity;BME280_pressure;Samples;Min_cycle;Max_cycle;Signal;HPM_P1;HPM_P2
2022/11/24 00:01:05;;;;;;;0.00;0.00;;;;;;;11.34;53.32;94037.97;4949598;29;20997;-64
2022/11/24 00:03:33;;;;;;;0.10;0.10;;;;;;;10.53;54.69;94038.81;4943894;29;20978;-66
2022/11/24 00:06:11;;;;;;;0.03;0.03;;;;;;;10.37;55.10;94052.28;4949393;29;20518;-65
2022/11/24 00:08:40;;;;;;;0.00;0.00;;;;;;;10.16;56.46;94055.06;4951601;28;20475;-62
2022/11/24 00:11:10;;;;;;;2.73;0.57;;;;;;;10.74;55.08;94050.69;4951724;28;20487;-65
2022/11/24 00:13:38;;;;;;;0.00;0.00;;;;;;;10.76;54.69;94047.78;4933939;29;20444;-65
2022/11/24 00:16:26;;;;;;;0.00;0.00;;;;;;;10.57;55.28;94067.84;4934097;29;20492;-65
2022/11/24 00:18:55;;;;;;;0.67;0.17;;;;;;;10.42;55.58;94066.13;4933665;29;20456;-63
2022/11/24 00:21:23;;;;;;;0.03;0.03;;;;;;;10.15;56.25;94063.19;4946632;28;20534;-63
2022/11/24 00:23:51;;;;;;;0.13;0.13;;;;;;;9.88;57.16;94068.03;4940717;29;20970;-64
2022/11/24 00:26:26;;;;;;;0.03;0.03;;;;;;;9.84;56.88;94043.47;4939273;28;20208;-63
2022/11/24 00:28:55;;;;;;;0.97;0.97;;;;;;;10.33;56.57;94077.47;4933016;29;20208;-62
2022/11/24 00:31:21;;;;;;;0.50;0.50;;;;;;;10.83;55.12;94075.22;4932855;29;20488;-64
2022/11/24 00:33:51;;;;;;;0.30;0.28;;;;;;;11.01;54.08;94061.41;4951967;29;20949;-63
2022/11/24 00:36:19;;;;;;;0.10;0.10;;;;;;;10.85;54.15;94067.88;4952595;28;20255;-65
2022/11/24 00:38:46;;;;;;;0.20;0.20;;;;;;;9.19;58.69;94089.78;4950093;28;20476;-62
2022/11/24 00:41:13;;;;;;;0.20;0.20;;;;;;;9.40;59.35;94081.88;4935021;29;20460;-64
2022/11/24 00:43:40;;;;;;;0.20;0.20;;;;;;;10.33;56.78;94077.47;4949983;29;20478;-62
2022/11/24 00:46:07;;;;;;;0.17;0.17;;;;;;;10.56;55.34;94069.69;4952135;28;20510;-65
2022/11/24 00:48:34;;;;;;;0.00;0.00;;;;;;;9.89;57.29;94075.63;4939230;28;20444;-63
2022/11/24 00:51:04;;;;;;;0.00;0.00;;;;;;;10.51;55.65;94072.34;4945017;28;20212;-65
2022/11/24 00:53:32;;;;;;;0.10;0.10;;;;;;;10.52;55.23;94084.41;4944021;29;20451;-64
2022/11/24 00:55:59;;;;;;;2.53;1.13;;;;;;;10.70;54.88;94091.56;4948467;28;20475;-66
2022/11/24 00:58:26;;;;;;;0.00;0.00;;;;;;;10.35;55.82;94098.91;4932659;29;20539;-64
2022/11/24 01:00:53;;;;;;;13.43;1.20;;;;;;;10.54;55.72;94090.16;4946461;29;20567;-64
2022/11/24 01:03:20;;;;;;;0.00;0.00;;;;;;;10.83;54.71;94090.94;4940926;28;20451;-66
2022/11/24 01:05:47;;;;;;;0.70;0.70;;;;;;;10.96;54.43;94090.31;4938423;28;20484;-66
2022/11/24 01:08:14;;;;;;;0.00;0.00;;;;;;;10.59;55.24;94074.38;4952284;28;20453;-67
2022/11/24 01:10:40;;;;;;;0.20;0.20;;;;;;;10.94;54.46;94081.94;4940158;28;20547;-61
2022/11/24 01:13:07;;;;;;;0.10;0.10;;;;;;;11.13;53.50;94080.16;4936734;29;20457;-63
2022/11/24 01:15:35;;;;;;;0.27;0.20;;;;;;;11.14;53.41;94086.19;4932835;29;20542;-63
2022/11/24 01:18:03;;;;;;;0.60;0.60;;;;;;;11.29;52.71;94088.66;4935591;29;20443;-64
2022/11/24 01:20:30;;;;;;;0.13;0.13;;;;;;;11.22;52.83;94075.09;4951919;28;20895;-65
2022/11/24 01:22:57;;;;;;;0.00;0.00;;;;;;;11.21;52.73;94087.44;4950225;28;20870;-65
2022/11/24 01:25:24;;;;;;;0.70;0.70;;;;;;;11.03;53.34;94085.50;4940274;28;20444;-64
2022/11/24 01:27:51;;;;;;;1.40;0.60;;;;;;;10.65;54.64;94081.16;4938357;28;20456;-66
2022/11/24 01:30:18;;;;;;;0.10;0.10;;;;;;;10.97;54.25;94081.38;4932326;29;20442;-67
2022/11/24 01:32:45;;;;;;;0.20;0.20;;;;;;;11.19;53.48;94073.81;4943914;29;20491;-64
2022/11/24 01:35:11;;;;;;;0.20;0.20;;;;;;;11.30;53.05;94078.94;4938383;28;20472;-65
2022/11/24 01:37:38;;;;;;;0.93;0.83;;;;;;;11.39;52.60;94075.41;4941314;28;20503;-66
2022/11/24 01:40:06;;;;;;;0.50;0.50;;;;;;;11.36;52.93;94088.31;4946016;29;20463;-64
2022/11/24 01:42:41;;;;;;;0.67;0.57;;;;;;;11.03;53.42;94095.22;4932073;29;20460;-63
2022/11/24 01:45:30;;;;;;;0.30;0.30;;;;;;;11.06;53.77;94089.41;4935216;29;20452;-61
2022/11/24 01:47:58;;;;;;;0.20;0.20;;;;;;;10.89;54.24;94084.56;4951813;29;20513;-62
2022/11/24 01:50:24;;;;;;;0.03;0.03;;;;;;;11.28;53.52;94086.31;4934453;28;20447;-61
2022/11/24 01:52:54;;;;;;;0.13;0.10;;;;;;;11.32;53.04;94082.06;4938255;29;20574;-64
2022/11/24 01:55:35;;;;;;;0.97;0.60;;;;;;;11.03;54.18;94088.13;4951880;28;20455;-64
2022/11/24 01:58:06;;;;;;;0.00;0.00;;;;;;;10.75;54.64;94073.19;4932372;29;20517;-62
2022/11/24 02:00:36;;;;;;;0.00;0.00;;;;;;;10.92;54.52;94081.44;4944844;28;20451;-64
2022/11/24 02:03:03;;;;;;;0.30;0.30;;;;;;;11.05;54.17;94087.84;4945644;28;20468;-65
2022/11/24 02:05:38;;;;;;;4.43;1.20;;;;;;;10.67;55.33;94084.28;4943629;28;20448;-63
2022/11/24 02:08:11;;;;;;;0.67;0.67;;;;;;;10.89;54.54;94084.56;4951516;28;20447;-64
2022/11/24 02:10:38;;;;;;;0.10;0.10;;;;;;;10.85;54.54;94077.56;4951508;28;20821;-62
2022/11/24 02:13:05;;;;;;;0.83;0.73;;;;;;;10.72;54.69;94080.81;4946685;28;20490;-64
2022/11/24 02:15:33;;;;;;;9.20;2.70;;;;;;;10.88;54.51;94088.28;4942443;28;20470;-64
2022/11/24 02:18:00;;;;;;;2.10;1.10;;;;;;;10.86;54.24;94089.59;4937947;28;20458;-63
2022/11/24 02:20:26;;;;;;;3.73;1.57;;;;;;;11.01;54.07;94098.13;4951270;28;20551;-63
2022/11/24 02:23:04;;;;;;;0.53;0.40;;;;;;;11.17;53.69;94093.50;4936365;28;20464;-64
2022/11/24 02:25:34;;;;;;;2.17;1.43;;;;;;;11.11;53.59;94097.25;4940375;29;20447;-64
2022/11/24 02:28:05;;;;;;;1.93;1.63;;;;;;;11.01;53.63;94103.34;4936356;28;20531;-63
2022/11/24 02:30:33;;;;;;;0.43;0.43;;;;;;;10.90;54.08;94101.88;4932093;29;20543;-63
2022/11/24 02:33:01;;;;;;;0.33;0.33;;;;;;;10.79;54.40;94094.38;4932204;29;20864;-63
2022/11/24 02:35:28;;;;;;;2.73;1.17;;;;;;;10.87;54.56;94097.22;4938708;29;20547;-63
2022/11/24 02:37:55;;;;;;;1.33;1.07;;;;;;;10.80;54.27;94086.22;4951084;28;20458;-63
2022/11/24 02:40:25;;;;;;;0.67;0.67;;;;;;;10.64;53.97;94074.34;4951112;28;20888;-63
2022/11/24 02:43:04;;;;;;;0.90;0.80;;;;;;;10.84;54.29;94097.72;4951599;28;20474;-61
2022/11/24 02:45:31;;;;;;;4.47;1.43;;;;;;;10.83;54.27;94096.19;4940721;28;20446;-65
2022/11/24 02:47:58;;;;;;;0.60;0.60;;;;;;;10.84;54.50;94107.44;4954875;28;20474;-64
2022/11/24 02:50:25;;;;;;;8.60;2.10;;;;;;;10.82;54.44;94105.09;4937674;28;20503;-65
2022/11/24 02:52:52;;;;;;;0.90;0.90;;;;;;;10.80;53.91;94101.19;4941397;29;20550;-63
2022/11/24 02:55:19;;;;;;;14.80;2.93;;;;;;;10.45;55.22;94115.34;4954753;28;20495;-65
2022/11/24 02:57:46;;;;;;;1.33;1.23;;;;;;;9.68;57.36;94110.00;4940785;28;21025;-64
2022/11/24 03:00:13;;;;;;;1.07;1.07;;;;;;;10.11;56.15;94109.28;4944693;28;20466;-61
2022/11/24 03:02:40;;;;;;;0.83;0.83;;;;;;;10.25;55.99;94109.47;4948585;29;20485;-61
2022/11/24 03:05:07;;;;;;;0.37;0.30;;;;;;;10.37;55.80;94108.06;4943691;29;20989;-65
2022/11/24 03:07:34;;;;;;;2.43;2.23;;;;;;;10.38;55.38;94112.28;4954151;28;20545;-64
2022/11/24 03:10:01;;;;;;;4.17;2.17;;;;;;;10.60;54.58;94106.59;4946825;28;20444;-65
2022/11/24 03:12:27;;;;;;;2.10;1.90;;;;;;;10.64;54.16;94111.00;4934941;29;20539;-66
2022/11/24 03:14:54;;;;;;;0.90;0.90;;;;;;;10.50;54.47;94111.91;4948409;29;20514;-62
2022/11/24 03:17:21;;;;;;;3.33;2.83;;;;;;;10.47;54.71;94115.88;4934803;29;20480;-64
2022/11/24 03:19:48;;;;;;;4.57;2.73;;;;;;;10.45;54.64;94114.56;4934676;29;20451;-61
2022/11/24 03:22:14;;;;;;;2.53;2.07;;;;;;;10.32;55.28;94121.19;4953483;29;20447;-61
2022/11/24 03:24:41;;;;;;;2.05;1.77;;;;;;;10.42;54.87;94121.13;4953740;28;20877;-62
2022/11/24 03:27:08;;;;;;;5.07;2.97;;;;;;;10.41;54.88;94119.56;4936849;28;20196;-62
2022/11/24 03:29:35;;;;;;;1.50;1.33;;;;;;;10.58;54.46;94127.84;4935035;29;20582;-63
2022/11/24 03:32:01;;;;;;;3.13;2.50;;;;;;;10.64;54.16;94133.78;4947682;29;20475;-64
2022/11/24 03:34:28;;;;;;;1.77;1.53;;;;;;;10.73;54.27;94134.81;4943011;29;20447;-67
2022/11/24 03:36:55;;;;;;;1.13;1.13;;;;;;;10.82;54.15;94138.41;4940153;28;20630;-63
2022/11/24 03:39:22;;;;;;;3.97;3.07;;;;;;;10.78;54.14;94140.78;4941233;29;20897;-66
2022/11/24 03:41:50;;;;;;;5.80;4.27;;;;;;;10.94;54.10;94150.09;4941194;28;20836;-63
2022/11/24 03:44:17;;;;;;;3.20;2.43;;;;;;;10.88;54.06;94145.94;4952786;28;20446;-65
2022/11/24 03:46:44;;;;;;;0.20;0.20;;;;;;;10.86;54.35;94148.03;4944417;28;20492;-63
2022/11/24 03:49:11;;;;;;;4.00;2.27;;;;;;;10.77;54.31;94144.44;4936522;29;20451;-63
2022/11/24 03:51:37;;;;;;;0.93;0.93;;;;;;;10.65;55.19;94151.88;4934214;29;20507;-62
2022/11/24 03:54:05;;;;;;;0.50;0.50;;;;;;;10.64;55.18;94144.28;4949046;28;20491;-63
2022/11/24 03:56:32;;;;;;;1.07;1.07;;;;;;;10.64;55.44;94163.41;4945646;28;20451;-62
2022/11/24 03:58:59;;;;;;;1.47;1.03;;;;;;;10.57;55.26;94160.31;4934425;29;20444;-65
2022/11/24 04:01:26;;;;;;;1.40;1.30;;;;;;;10.78;54.94;94172.22;4948434;29;20916;-65
2022/11/24 04:03:52;;;;;;;1.43;1.33;;;;;;;10.80;55.01;94171.94;4934264;28;20453;-62
2022/11/24 04:06:19;;;;;;;3.40;2.00;;;;;;;10.88;54.75;94159.03;4938341;28;20451;-64
2022/11/24 04:08:46;;;;;;;2.83;2.63;;;;;;;10.87;54.85;94167.97;4942766;28;20963;-62
2022/11/24 04:12:42;;;;;;;4.30;2.60;;;;;;;10.70;55.14;94182.50;4936702;29;20498;-62
2022/11/24 04:14:00;;;;;;;3.03;2.33;;;;;;;10.79;54.65;94179.03;4953360;28;20802;-64
2022/11/24 04:16:26;;;;;;;2.40;2.20;;;;;;;10.81;54.70;94176.13;4949493;28;20559;-65
2022/11/24 04:18:53;;;;;;;2.40;2.20;;;;;;;10.68;54.55;94171.50;4943732;29;20455;-61
2022/11/24 04:21:20;;;;;;;4.23;3.27;;;;;;;10.63;54.92;94168.91;4939177;28;20450;-62
2022/11/24 04:23:47;;;;;;;2.70;2.47;;;;;;;10.47;55.18;94175.31;4952834;29;20459;-63
2022/11/24 04:26:14;;;;;;;3.70;2.70;;;;;;;10.44;55.63;94181.88;4939820;28;20448;-60
2022/11/24 04:28:40;;;;;;;4.17;3.00;;;;;;;10.57;55.32;94186.50;4946636;28;20448;-66
2022/11/24 04:31:07;;;;;;;0.63;0.63;;;;;;;10.47;55.69;94193.66;4933618;29;20642;-65
2022/11/24 04:33:35;;;;;;;1.20;1.13;;;;;;;9.97;56.58;94198.06;4938242;29;21211;-65
2022/11/24 04:36:02;;;;;;;1.27;1.17;;;;;;;9.15;59.12;94206.34;4953174;28;20483;-65
2022/11/24 04:38:29;;;;;;;1.30;1.20;;;;;;;8.91;60.10;94209.75;4935590;28;20874;-66
2022/11/24 04:41:16;;;;;;;0.47;0.47;;;;;;;9.47;58.61;94207.88;4933652;29;20543;-67
2022/11/24 04:43:43;;;;;;;0.47;0.47;;;;;;;9.87;57.46;94202.56;4933473;29;20324;-62
2022/11/24 04:46:10;;;;;;;1.95;0.82;;;;;;;10.00;57.17;94192.28;4943247;28;20322;-64
2022/11/24 04:48:37;;;;;;;1.98;1.80;;;;;;;9.82;58.21;94207.78;4936120;28;20207;-64
2022/11/24 04:51:05;;;;;;;2.28;0.82;;;;;;;10.00;57.36;94194.88;4934455;29;20193;-65
2022/11/24 04:53:32;;;;;;;0.00;0.00;;;;;;;10.21;57.29;94206.09;4933224;29;20216;-65
2022/11/24 04:56:02;;;;;;;1.27;1.17;;;;;;;9.75;58.55;94204.66;4932776;29;20467;-62
2022/11/24 04:58:29;;;;;;;0.75;0.65;;;;;;;10.13;58.10;94198.78;4943186;28;20907;-61
2022/11/24 05:00:56;;;;;;;4.15;3.80;;;;;;;10.49;56.54;94199.41;4944018;28;20338;-66
2022/11/24 05:03:23;;;;;;;4.90;2.40;;;;;;;10.57;56.01;94190.94;4935936;28;20702;-64
2022/11/24 05:05:49;;;;;;;2.83;2.58;;;;;;;10.62;56.34;94196.94;4945673;28;20660;-64
2022/11/24 05:08:16;;;;;;;9.30;4.17;;;;;;;10.75;55.84;94214.69;4942918;29;20211;-62
2022/11/24 05:10:43;;;;;;;3.83;3.13;;;;;;;10.72;55.73;94199.50;4936592;28;20464;-66
2022/11/24 05:13:11;;;;;;;5.73;4.63;;;;;;;10.87;55.48;94206.47;4941010;29;20491;-62
2022/11/24 05:15:40;;;;;;;3.30;3.00;;;;;;;10.90;55.39;94209.34;4951049;28;20448;-64
2022/11/24 05:18:10;;;;;;;4.70;3.20;;;;;;;10.83;57.25;94211.50;4945119;28;20441;-64
2022/11/24 05:20:38;;;;;;;1.93;1.83;;;;;;;11.00;57.64;94211.88;4932600;29;20480;-63
2022/11/24 05:23:06;;;;;;;7.87;4.00;;;;;;;11.11;56.17;94213.34;4938465;29;20510;-61
2022/11/24 05:25:33;;;;;;;5.67;4.00;;;;;;;11.04;55.99;94217.34;4939865;28;20488;-65
2022/11/24 05:28:02;;;;;;;3.47;3.27;;;;;;;11.00;55.82;94211.88;4937538;29;20483;-62
2022/11/24 05:30:31;;;;;;;1.53;1.43;;;;;;;11.08;55.60;94213.91;4951778;28;20514;-67
2022/11/24 05:32:57;;;;;;;2.60;2.33;;;;;;;11.23;55.19;94221.66;4933616;28;20905;-62
2022/11/24 05:35:24;;;;;;;4.20;2.37;;;;;;;11.17;55.65;94217.50;4930786;29;20527;-61
2022/11/24 05:37:51;;;;;;;0.13;0.13;;;;;;;11.10;55.21;94226.75;4930945;29;20471;-65
2022/11/24 05:40:18;;;;;;;1.57;1.47;;;;;;;11.14;54.88;94223.31;4931896;29;20460;-64
2022/11/24 05:42:45;;;;;;;0.50;0.50;;;;;;;11.14;55.12;94225.94;4931755;29;20448;-60
2022/11/24 05:45:19;;;;;;;6.47;0.80;;;;;;;11.10;55.32;94229.38;4930143;29;20511;-64
2022/11/24 05:47:48;;;;;;;0.70;0.70;;;;;;;11.31;54.69;94237.88;4930581;29;20480;-64
2022/11/24 05:50:17;;;;;;;1.13;0.97;;;;;;;11.22;54.67;94235.06;4931019;29;20956;-63
2022/11/24 05:52:44;;;;;;;0.53;0.53;;;;;;;11.29;54.86;94235.53;4931053;29;20574;-62
2022/11/24 05:55:12;;;;;;;0.63;0.63;;;;;;;11.27;55.34;94239.47;4930571;29;20543;-62
2022/11/24 05:57:39;;;;;;;1.73;1.63;;;;;;;11.33;54.87;94241.75;4930908;29;21015;-66
2022/11/24 06:00:07;;;;;;;3.30;2.17;;;;;;;11.30;54.85;94241.53;4930396;28;21058;-64
2022/11/24 06:02:40;;;;;;;0.00;0.00;;;;;;;11.32;54.70;94244.66;4930268;29;21087;-58
2022/11/24 06:05:07;;;;;;;2.10;1.90;;;;;;;11.44;54.40;94247.72;4930414;29;20444;-62
2022/11/24 06:07:34;;;;;;;1.17;0.97;;;;;;;11.47;54.20;94247.94;4931198;29;20448;-61
2022/11/24 06:10:02;;;;;;;2.67;1.43;;;;;;;11.44;53.95;94258.22;4944285;29;21031;-63
2022/11/24 06:12:29;;;;;;;0.63;0.63;;;;;;;11.42;54.59;94257.69;4940818;28;20490;-63
2022/11/24 06:14:57;;;;;;;0.23;0.23;;;;;;;11.48;53.92;94254.75;4949244;28;20451;-64
2022/11/24 06:17:24;;;;;;;1.50;1.40;;;;;;;11.52;53.94;94255.78;4941539;28;20454;-63
2022/11/24 06:19:51;;;;;;;0.30;0.30;;;;;;;11.48;54.05;94256.59;4955132;28;20973;-66
2022/11/24 06:22:18;;;;;;;0.23;0.23;;;;;;;11.42;55.09;94257.69;4955303;28;20450;-63
2022/11/24 06:24:45;;;;;;;0.27;0.27;;;;;;;11.59;54.11;94250.19;4955207;29;20451;-63
2022/11/24 06:27:12;;;;;;;0.53;0.53;;;;;;;11.42;55.19;94260.31;4942029;28;20446;-62
2022/11/24 06:29:39;;;;;;;0.30;0.30;;;;;;;11.55;54.96;94264.94;4944509;28;20867;-60
2022/11/24 06:32:06;;;;;;;1.13;1.13;;;;;;;11.78;54.42;94270.25;4935548;29;20531;-63
2022/11/24 06:34:33;;;;;;;0.93;0.90;;;;;;;11.83;54.24;94262.31;4936274;29;20499;-64
2022/11/24 06:37:01;;;;;;;2.30;2.10;;;;;;;11.81;54.27;94272.31;4950653;29;20478;-64
2022/11/24 06:39:27;;;;;;;0.90;0.90;;;;;;;11.81;53.96;94268.91;4955444;28;20530;-61
2022/11/24 06:41:54;;;;;;;3.07;1.93;;;;;;;11.94;54.01;94271.66;4954672;28;20867;-61
2022/11/24 06:44:21;;;;;;;7.07;3.37;;;;;;;11.94;54.34;94284.00;4949159;28;20468;-61
2022/11/24 06:46:48;;;;;;;3.10;2.87;;;;;;;12.02;53.99;94297.28;4935394;29;20932;-64
2022/11/24 06:49:15;;;;;;;2.23;2.03;;;;;;;11.91;54.08;94306.34;4953334;29;20443;-61
2022/11/24 06:51:42;;;;;;;7.73;2.70;;;;;;;11.82;54.58;94317.72;4943165;29;20460;-62
2022/11/24 06:54:13;;;;;;;1.87;1.77;;;;;;;11.86;54.26;94313.50;4951738;29;21076;-66
2022/11/24 06:56:41;;;;;;;7.73;4.33;;;;;;;11.71;54.82;94321.50;4945351;28;20456;-62
2022/11/24 06:59:16;;;;;;;3.37;3.07;;;;;;;11.87;54.41;94326.34;4948900;29;20985;-66
2022/11/24 07:01:43;;;;;;;6.57;4.07;;;;;;;11.78;54.18;94333.25;4943479;29;20449;-62
2022/11/24 07:04:10;;;;;;;7.27;4.37;;;;;;;11.89;54.11;94323.44;4953302;28;20451;-65
2022/11/24 07:06:41;;;;;;;3.03;2.83;;;;;;;11.80;54.11;94325.09;4942052;29;20515;-61
2022/11/24 07:09:09;;;;;;;1.90;1.43;;;;;;;11.69;54.61;94328.88;4941160;28;20452;-63
2022/11/24 07:11:36;;;;;;;4.00;1.90;;;;;;;11.81;54.56;94347.66;4940874;29;20431;-61
2022/11/24 07:14:03;;;;;;;2.77;2.57;;;;;;;11.92;53.99;94344.66;4942309;28;20866;-63
2022/11/24 07:16:30;;;;;;;1.43;1.33;;;;;;;11.71;54.76;94343.28;4952728;29;20509;-64
2022/11/24 07:18:57;;;;;;;5.10;2.80;;;;;;;12.01;54.25;94352.72;4944035;28;20467;-64
2022/11/24 07:21:26;;;;;;;0.93;0.93;;;;;;;11.92;54.01;94355.16;4937584;29;20970;-61
2022/11/24 07:23:55;;;;;;;4.70;3.20;;;;;;;11.93;54.26;94351.47;4945187;28;20455;-65
2022/11/24 07:26:23;;;;;;;3.13;1.83;;;;;;;11.79;54.69;94344.50;4950168;28;20451;-62
2022/11/24 07:28:50;;;;;;;0.83;0.83;;;;;;;11.42;55.75;94362.63;4953510;28;20893;-65
2022/11/24 07:31:20;;;;;;;6.87;3.77;;;;;;;11.88;54.81;94353.34;4953355;28;20962;-61
2022/11/24 07:33:52;;;;;;;1.10;1.00;;;;;;;11.67;55.08;94359.84;4953921;28;20479;-65
2022/11/24 07:36:19;;;;;;;0.40;0.40;;;;;;;11.61;54.68;94359.06;4940680;28;20543;-64
2022/11/24 07:38:47;;;;;;;1.27;1.10;;;;;;;11.78;54.74;94369.22;4953907;28;20522;-62
2022/11/24 07:41:15;;;;;;;0.20;0.20;;;;;;;11.90;54.25;94367.00;4941900;28;20444;-60
2022/11/24 07:43:42;;;;;;;0.00;0.00;;;;;;;11.51;54.78;94368.84;4952398;28;20974;-65
2022/11/24 07:46:11;;;;;;;2.90;1.00;;;;;;;11.41;55.05;94379.41;4953427;29;20511;-61
2022/11/24 07:48:38;;;;;;;8.10;2.40;;;;;;;11.04;56.34;94378.06;4936953;28;20547;-63
2022/11/24 07:51:06;;;;;;;1.17;0.80;;;;;;;11.04;56.28;94375.44;4934138;29;20452;-62
2022/11/24 07:53:34;;;;;;;2.37;0.60;;;;;;;11.18;56.20;94380.88;4934239;29;21026;-65
2022/11/24 07:56:02;;;;;;;1.00;0.60;;;;;;;11.39;55.94;94392.81;4948076;29;20507;-64
2022/11/24 07:58:31;;;;;;;0.10;0.10;;;;;;;11.60;55.35;94399.50;4934443;29;20448;-66
2022/11/24 08:01:08;;;;;;;2.47;0.63;;;;;;;11.17;56.48;94405.50;4936658;29;20575;-66
2022/11/24 08:03:35;;;;;;;3.07;1.90;;;;;;;11.24;56.25;94416.47;4943402;28;20483;-64
2022/11/24 08:06:01;;;;;;;0.50;0.50;;;;;;;11.01;56.58;94407.44;4950029;28;20838;-63
2022/11/24 08:08:48;;;;;;;0.57;0.57;;;;;;;11.01;56.54;94417.13;4953223;29;20459;-61
2022/11/24 08:11:16;;;;;;;0.33;0.33;;;;;;;10.82;56.80;94419.56;4939499;28;20543;-61
2022/11/24 08:13:43;;;;;;;0.10;0.10;;;;;;;10.79;57.33;94420.09;4943407;28;20484;-62
2022/11/24 08:16:14;;;;;;;0.30;0.30;;;;;;;11.10;56.50;94426.00;4949306;29;20479;-62
2022/11/24 08:18:42;;;;;;;0.57;0.50;;;;;;;10.83;56.68;94423.75;4945186;29;20962;-62
2022/11/24 08:21:13;;;;;;;0.83;0.83;;;;;;;10.94;56.59;94422.69;4947260;29;20471;-62
2022/11/24 08:23:40;;;;;;;0.10;0.10;;;;;;;11.18;56.28;94426.22;4941238;29;20534;-62
2022/11/24 08:26:14;;;;;;;0.23;0.23;;;;;;;10.81;56.46;94431.09;4939654;28;20487;-62
2022/11/24 08:28:42;;;;;;;1.83;0.77;;;;;;;10.84;56.47;94432.38;4940675;28;20541;-63
2022/11/24 08:31:12;;;;;;;0.10;0.10;;;;;;;10.63;56.98;94442.16;4953096;28;20487;-62
2022/11/24 08:33:39;;;;;;;0.00;0.00;;;;;;;10.28;57.41;94449.28;4953088;28;20303;-60
2022/11/24 08:36:09;;;;;;;0.10;0.10;;;;;;;10.55;56.89;94453.19;4953334;28;20200;-62
2022/11/24 08:38:36;;;;;;;0.57;0.57;;;;;;;10.65;57.14;94455.00;4948539;28;20739;-65
2022/11/24 08:41:08;;;;;;;0.80;0.60;;;;;;;10.26;57.27;94456.63;4943176;29;20447;-64
2022/11/24 08:43:38;;;;;;;0.10;0.10;;;;;;;10.07;58.17;94464.22;4938926;28;20454;-60
2022/11/24 08:46:07;;;;;;;2.33;2.15;;;;;;;10.02;59.04;94466.81;4943213;28;20669;-64
2022/11/24 08:48:34;;;;;;;0.00;0.00;;;;;;;10.31;57.99;94469.72;4946682;29;20204;-62
2022/11/24 08:51:08;;;;;;;0.22;0.22;;;;;;;10.17;58.48;94472.88;4933383;29;20535;-63
2022/11/24 08:53:35;;;;;;;0.00;0.00;;;;;;;9.90;57.95;94474.16;4944732;29;20220;-61
2022/11/24 08:56:03;;;;;;;0.40;0.40;;;;;;;10.29;56.94;94480.47;4952725;28;20299;-64
2022/11/24 08:58:31;;;;;;;0.30;0.30;;;;;;;9.83;57.33;94484.88;4942290;28;20222;-61
2022/11/24 09:01:04;;;;;;;1.33;0.20;;;;;;;9.79;57.68;94464.72;4949332;28;20226;-64
2022/11/24 09:03:32;;;;;;;0.00;0.00;;;;;;;10.12;56.41;94482.56;4942716;28;20303;-61
2022/11/24 09:05:58;;;;;;;0.00;0.00;;;;;;;9.86;56.95;94484.34;4948201;29;20597;-61
2022/11/24 09:08:25;;;;;;;0.00;0.00;;;;;;;9.87;56.19;94482.53;4944794;28;20204;-63
2022/11/24 09:10:53;;;;;;;0.00;0.00;;;;;;;9.75;56.54;94493.22;4933289;29;20203;-62
2022/11/24 09:13:20;;;;;;;0.00;0.00;;;;;;;9.89;56.23;94488.28;4939136;29;20314;-63
2022/11/24 09:15:47;;;;;;;0.03;0.03;;;;;;;10.10;55.32;94490.69;4952271;28;20691;-63
2022/11/24 09:18:13;;;;;;;0.15;0.15;;;;;;;10.43;54.93;94491.97;4952364;29;20239;-63
2022/11/24 09:20:40;;;;;;;0.00;0.00;;;;;;;10.05;55.09;94492.50;4952699;28;20208;-62
2022/11/24 09:23:07;;;;;;;0.00;0.00;;;;;;;10.28;54.27;94497.22;4939156;28;20258;-61
2022/11/24 09:25:34;;;;;;;0.00;0.00;;;;;;;9.94;54.40;94496.13;4943252;28;20200;-62
2022/11/24 09:28:01;;;;;;;1.95;1.17;;;;;;;9.97;54.18;94499.03;4947327;29;20196;-63
2022/11/24 09:30:28;;;;;;;0.45;0.45;;;;;;;10.34;53.59;94501.41;4952137;29;20208;-62
2022/11/24 09:32:55;;;;;;;0.75;0.47;;;;;;;10.35;53.64;94497.72;4938561;28;20216;-62
2022/11/24 09:35:23;;;;;;;0.00;0.00;;;;;;;11.02;52.15;94498.13;4932667;29;20224;-61
2022/11/24 09:37:50;;;;;;;0.03;0.03;;;;;;;10.66;51.57;94499.28;4933148;29;20644;-64
2022/11/24 09:40:17;;;;;;;0.05;0.05;;;;;;;10.53;52.56;94499.81;4945965;29;20645;-63
2022/11/24 09:42:53;;;;;;;0.00;0.00;;;;;;;10.42;52.78;94503.47;4942702;29;20234;-64
2022/11/24 09:45:26;;;;;;;0.00;0.00;;;;;;;10.52;52.40;94493.00;4951650;28;20450;-64
2022/11/24 09:48:29;;;;;;;0.05;0.05;;;;;;;10.40;51.80;94499.56;4938964;28;20291;-65
2022/11/24 09:50:59;;;;;;;0.00;0.00;;;;;;;10.01;52.58;94492.22;4933515;29;20200;-61
2022/11/24 09:53:35;;;;;;;0.00;0.00;;;;;;;10.17;52.72;94500.88;4942537;29;20247;-63
2022/11/24 09:56:19;;;;;;;0.00;0.00;;;;;;;10.38;52.05;94499.84;4951965;28;20253;-61
2022/11/24 09:58:57;;;;;;;0.00;0.00;;;;;;;10.60;51.28;94497.69;4951817;28;20656;-62
2022/11/24 10:01:33;;;;;;;0.10;0.10;;;;;;;9.82;52.01;94495.59;4938929;29;20295;-61
2022/11/24 10:04:02;;;;;;;0.20;0.20;;;;;;;10.51;50.41;94501.91;4951436;28;20652;-61
2022/11/24 10:06:52;;;;;;;0.00;0.00;;;;;;;10.62;50.10;94503.47;4938859;29;20192;-61
2022/11/24 10:09:29;;;;;;;0.00;0.00;;;;;;;10.22;51.03;94503.50;4937836;29;20204;-62
2022/11/24 10:12:11;;;;;;;0.00;0.00;;;;;;;10.38;50.31;94512.94;4942861;28;20204;-62
2022/11/24 10:14:54;;;;;;;0.30;0.30;;;;;;;10.36;49.85;94509.78;4948759;28;20569;-63
2022/11/24 10:17:36;;;;;;;0.15;0.15;;;;;;;10.54;49.17;94522.34;4940098;28;20204;-63
2022/11/24 10:20:18;;;;;;;0.10;0.10;;;;;;;10.02;50.02;94513.94;4945535;28;20260;-62
2022/11/24 10:23:18;;;;;;;0.20;0.20;;;;;;;9.93;51.06;94515.50;4945465;28;20207;-64
2022/11/24 10:25:53;;;;;;;0.00;0.00;;;;;;;10.19;50.26;94511.88;4941048;28;20256;-65
2022/11/24 10:28:20;;;;;;;0.00;0.00;;;;;;;9.96;50.87;94515.75;4950002;29;20234;-60
2022/11/24 10:30:48;;;;;;;0.50;0.50;;;;;;;9.52;51.62;94513.84;4941543;28;20200;-61
2022/11/24 10:33:18;;;;;;;0.00;0.00;;;;;;;9.85;51.40;94518.63;4934093;29;20308;-63
2022/11/24 10:36:01;;;;;;;0.00;0.00;;;;;;;10.28;50.63;94515.53;4951680;28;20200;-61
2022/11/24 10:38:43;;;;;;;0.38;0.38;;;;;;;10.28;49.84;94512.94;4947709;28;20615;-62
2022/11/24 10:41:23;;;;;;;0.00;0.00;;;;;;;10.04;50.32;94514.47;4943183;29;20295;-60
2022/11/24 10:43:51;;;;;;;0.00;0.00;;;;;;;10.17;49.73;94511.34;4951080;28;20192;-61
2022/11/24 10:46:24;;;;;;;0.00;0.00;;;;;;;9.81;50.66;94512.34;4951336;28;20318;-60
2022/11/24 10:49:04;;;;;;;0.00;0.00;;;;;;;9.84;50.70;94515.22;4933347;28;20279;-60
2022/11/24 10:51:49;;;;;;;0.08;0.08;;;;;;;9.92;50.41;94519.16;4933590;29;20263;-63
2022/11/24 10:54:20;;;;;;;0.30;0.30;;;;;;;9.91;49.87;94518.38;4945138;29;20227;-62
2022/11/24 10:56:50;;;;;;;0.22;0.22;;;;;;;9.77;50.00;94521.75;4942004;29;20196;-62
2022/11/24 10:59:23;;;;;;;0.00;0.00;;;;;;;9.92;50.02;94519.16;4948267;28;20239;-62
2022/11/24 11:01:54;;;;;;;0.10;0.10;;;;;;;9.93;49.83;94521.50;4941492;29;20215;-62
2022/11/24 11:04:28;;;;;;;0.00;0.00;;;;;;;10.03;49.95;94520.75;4949753;28;20231;-62
2022/11/24 11:07:14;;;;;;;0.20;0.20;;;;;;;10.04;49.53;94519.69;4935612;29;20307;-63
2022/11/24 11:09:41;;;;;;;0.00;0.00;;;;;;;9.68;49.96;94523.31;4939382;29;20227;-61
2022/11/24 11:12:20;;;;;;;0.00;0.00;;;;;;;9.58;49.87;94520.66;4944217;28;20672;-62
2022/11/24 11:15:25;;;;;;;0.00;0.00;;;;;;;9.63;49.70;94525.91;4941691;28;20223;-60
2022/11/24 11:17:56;;;;;;;0.10;0.10;;;;;;;9.69;50.15;94530.13;4954349;28;20260;-61
2022/11/24 11:20:26;;;;;;;1.55;1.35;;;;;;;9.93;48.79;94536.41;4946299;28;20204;-62
2022/11/24 11:22:54;;;;;;;0.98;0.57;;;;;;;10.15;47.98;94529.16;4949176;29;20536;-63
2022/11/24 11:25:35;;;;;;;0.57;0.57;;;;;;;9.90;48.92;94536.94;4954113;28;20200;-61
2022/11/24 11:28:17;;;;;;;0.00;0.00;;;;;;;9.65;49.46;94540.28;4938914;28;21038;-61
2022/11/24 11:31:05;;;;;;;0.20;0.20;;;;;;;9.74;49.27;94537.97;4944303;29;20447;-61
2022/11/24 11:33:54;;;;;;;0.00;0.00;;;;;;;9.59;49.37;94540.53;4934459;29;20315;-60
2022/11/24 11:36:31;;;;;;;1.17;0.52;;;;;;;9.61;49.22;94535.84;4947913;29;20211;-62
2022/11/24 11:38:58;;;;;;;0.00;0.00;;;;;;;9.60;49.50;94534.28;4942025;29;20196;-61
2022/11/24 11:41:33;;;;;;;0.30;0.30;;;;;;;9.87;48.91;94532.25;4941086;28;20866;-62
2022/11/24 11:44:12;;;;;;;0.17;0.17;;;;;;;9.88;48.97;94544.28;4934796;29;20226;-61
2022/11/24 11:46:41;;;;;;;0.00;0.00;;;;;;;9.95;48.47;94534.34;4935044;29;20357;-61